Time;durP1;ratioP1;P1;durP2;ratioP2;P2;SDS_P1;SDS_P2;PMS_P1;PMS_P2;Temp;Humidity;BMP_temperature;BMP_pressure;BME280_temperature;BME280_humidity;BME280_pressure;Samples;Min_cycle;Max_cycle;Signal;HPM_P1;HPM_P2
2022/06/29 00:02:24;;;;;;;4.32;2.20;;;19.30;97.70;;;;;;5092568;28;20023;-76
2022/06/29 00:04:49;;;;;;;2.65;1.95;;;19.30;98.10;;;;;;5091655;28;20119;-74
2022/06/29 00:07:15;;;;;;;3.65;1.92;;;19.20;97.80;;;;;;5093355;28;20031;-76
2022/06/29 00:09:40;;;;;;;3.30;1.90;;;19.20;97.90;;;;;;5093355;28;20032;-76
2022/06/29 00:12:06;;;;;;;8.73;2.28;;;19.20;98.00;;;;;;5091961;28;20095;-76
2022/06/29 00:14:41;;;;;;;4.60;1.98;;;19.20;98.20;;;;;;5092579;28;20016;-76
2022/06/29 00:17:16;;;;;;;2.97;1.83;;;19.20;98.10;;;;;;5078460;28;20035;-76
2022/06/29 00:19:42;;;;;;;2.53;1.95;;;19.10;98.10;;;;;;5093583;28;20024;-75
2022/06/29 00:22:08;;;;;;;6.57;1.92;;;19.00;98.10;;;;;;5092561;28;20032;-76
2022/06/29 00:24:34;;;;;;;3.67;2.08;;;19.00;98.30;;;;;;5091862;28;20054;-75
2022/06/29 00:27:02;;;;;;;4.30;2.22;;;19.00;98.30;;;;;;5092299;28;20039;-75
2022/06/29 00:29:28;;;;;;;2.20;2.00;;;19.00;98.20;;;;;;5092497;28;20056;-76
2022/06/29 00:31:53;;;;;;;4.13;1.88;;;19.00;98.40;;;;;;5091335;28;20036;-75
2022/06/29 00:34:19;;;;;;;4.00;1.83;;;18.90;98.40;;;;;;5092290;28;20387;-75
2022/06/29 00:36:45;;;;;;;7.07;2.20;;;18.90;98.50;;;;;;5092933;28;20031;-76
2022/06/29 00:39:11;;;;;;;2.75;1.90;;;18.90;98.50;;;;;;5088481;28;20016;-76
2022/06/29 00:41:44;;;;;;;2.78;1.98;;;18.80;98.70;;;;;;5081630;28;20077;-75
2022/06/29 00:44:17;;;;;;;3.40;2.15;;;18.80;98.70;;;;;;5093324;28;20020;-75
2022/06/29 00:46:48;;;;;;;3.47;2.33;;;18.70;98.70;;;;;;5095582;28;20024;-75
2022/06/29 00:49:15;;;;;;;4.38;2.08;;;18.70;98.80;;;;;;5096578;28;20066;-76
2022/06/29 00:51:45;;;;;;;3.80;2.10;;;18.70;98.80;;;;;;5096799;28;20070;-76
2022/06/29 00:54:14;;;;;;;3.72;2.20;;;18.60;99.00;;;;;;5096012;28;20386;-75
2022/06/29 00:56:41;;;;;;;4.90;1.95;;;18.70;98.90;;;;;;5096597;28;20028;-76
2022/06/29 00:59:11;;;;;;;10.07;2.10;;;18.60;98.80;;;;;;5095591;28;20059;-76
2022/06/29 01:01:40;;;;;;;3.05;2.03;;;18.60;98.90;;;;;;5095019;28;20048;-75
2022/06/29 01:04:06;;;;;;;5.50;2.70;;;18.60;99.10;;;;;;5094720;28;20488;-76
2022/06/29 01:06:32;;;;;;;4.18;2.20;;;18.60;98.90;;;;;;5095468;28;20031;-76
2022/06/29 01:08:58;;;;;;;3.58;2.22;;;18.60;99.30;;;;;;5095952;28;20020;-76
2022/06/29 01:11:24;;;;;;;4.22;2.05;;;18.50;99.40;;;;;;5096144;28;20028;-74
2022/06/29 01:13:49;;;;;;;2.28;2.00;;;18.50;99.40;;;;;;5096531;28;20081;-75
2022/06/29 01:16:15;;;;;;;3.65;2.30;;;18.40;99.50;;;;;;5084942;28;20028;-76
2022/06/29 01:18:41;;;;;;;2.85;1.98;;;18.40;99.60;;;;;;5092287;28;20032;-77
2022/06/29 01:21:10;;;;;;;2.65;2.05;;;18.30;99.60;;;;;;5095149;28;20028;-75
2022/06/29 01:23:36;;;;;;;2.20;2.00;;;18.20;99.70;;;;;;5095307;28;20024;-76
2022/06/29 01:26:09;;;;;;;5.03;2.80;;;18.20;99.90;;;;;;5095073;28;20032;-76
2022/06/29 01:28:34;;;;;;;5.63;2.50;;;18.20;99.90;;;;;;5094813;28;20016;-76
2022/06/29 01:31:00;;;;;;;3.03;2.25;;;18.20;99.90;;;;;;5095259;28;20050;-74
2022/06/29 01:33:26;;;;;;;4.25;2.35;;;18.10;99.90;;;;;;5095259;28;20040;-76
2022/06/29 01:35:52;;;;;;;4.07;2.60;;;18.20;99.90;;;;;;5094259;28;20023;-75
2022/06/29 01:38:20;;;;;;;7.50;2.88;;;18.10;99.90;;;;;;5095371;28;20115;-75
2022/06/29 01:40:46;;;;;;;3.85;2.30;;;18.10;99.90;;;;;;5095229;28;20020;-76
2022/06/29 01:43:12;;;;;;;2.83;2.30;;;18.10;99.90;;;;;;5094091;28;20035;-76
2022/06/29 01:45:38;;;;;;;3.42;2.83;;;18.10;99.90;;;;;;5095130;28;20024;-76
2022/06/29 01:48:04;;;;;;;6.10;2.78;;;18.00;99.90;;;;;;5095149;28;20024;-75
2022/06/29 01:50:30;;;;;;;2.92;2.20;;;18.00;99.90;;;;;;5094509;28;20161;-76
2022/06/29 01:52:55;;;;;;;3.38;3.08;;;18.00;99.90;;;;;;5094714;28;20111;-77
2022/06/29 01:55:21;;;;;;;2.78;2.33;;;18.00;99.90;;;;;;5095287;28;20031;-78
2022/06/29 01:57:47;;;;;;;2.63;2.42;;;18.00;99.90;;;;;;5094447;28;20028;-76
2022/06/29 02:00:13;;;;;;;2.67;2.45;;;18.00;99.90;;;;;;5095399;28;20016;-75
2022/06/29 02:02:38;;;;;;;3.83;2.75;;;17.90;99.90;;;;;;5094431;28;20024;-77
2022/06/29 02:05:04;;;;;;;4.22;2.65;;;17.90;99.90;;;;;;5094950;28;20392;-76
2022/06/29 02:07:30;;;;;;;6.35;2.85;;;17.90;99.90;;;;;;5094855;28;20051;-76
2022/06/29 02:09:56;;;;;;;4.25;3.30;;;17.90;99.90;;;;;;5093509;28;20163;-76
2022/06/29 02:12:22;;;;;;;2.78;2.58;;;17.90;99.90;;;;;;5094891;28;20115;-77
2022/06/29 02:14:48;;;;;;;3.75;2.95;;;17.80;99.90;;;;;;5094687;28;20024;-76
2022/06/29 02:17:13;;;;;;;4.13;2.90;;;17.80;99.90;;;;;;5080247;28;20066;-75
2022/06/29 02:19:39;;;;;;;3.47;2.90;;;17.70;99.90;;;;;;5094913;28;20018;-75
2022/06/29 02:22:05;;;;;;;5.07;2.60;;;17.70;99.90;;;;;;5094666;28;20365;-74
2022/06/29 02:24:30;;;;;;;7.72;3.22;;;17.60;99.90;;;;;;5095212;28;20032;-76
2022/06/29 02:26:56;;;;;;;4.15;2.97;;;17.60;99.90;;;;;;5094611;28;21358;-76
2022/06/29 02:29:21;;;;;;;8.40;3.28;;;17.60;99.90;;;;;;5094578;28;20035;-76
2022/06/29 02:34:43;;;;;;;3.50;3.00;;;17.60;99.90;;;;;;5094929;28;20031;-76
2022/06/29 02:37:13;;;;;;;6.43;3.55;;;17.60;99.90;;;;;;5093929;28;20078;-75
2022/06/29 02:39:39;;;;;;;3.55;2.90;;;17.60;99.90;;;;;;5093887;28;20020;-75
2022/06/29 02:42:05;;;;;;;4.32;3.20;;;17.60;99.90;;;;;;5080966;28;20029;-77
2022/06/29 02:44:31;;;;;;;4.10;3.70;;;17.50;99.90;;;;;;5073908;28;20024;-75
2022/06/29 02:46:57;;;;;;;4.15;3.50;;;17.50;99.90;;;;;;5077178;28;20040;-76
2022/06/29 02:49:22;;;;;;;5.78;3.30;;;17.50;99.90;;;;;;5094318;28;20016;-77
2022/06/29 02:51:48;;;;;;;7.55;3.78;;;17.40;99.90;;;;;;5093612;28;20115;-76
2022/06/29 02:54:14;;;;;;;4.28;3.45;;;17.40;99.90;;;;;;5093582;28;20051;-77
2022/06/29 02:56:40;;;;;;;4.25;3.53;;;17.40;99.90;;;;;;5094113;28;20428;-76
2022/06/29 02:59:05;;;;;;;4.05;3.40;;;17.40;99.90;;;;;;5082827;28;20526;-75
2022/06/29 03:01:34;;;;;;;4.72;3.95;;;17.40;99.90;;;;;;5089860;28;20021;-75
2022/06/29 03:03:59;;;;;;;3.58;3.28;;;17.40;99.90;;;;;;5097667;28;20106;-75
2022/06/29 03:06:25;;;;;;;5.22;4.20;;;17.40;99.90;;;;;;5094760;28;20411;-76
2022/06/29 03:08:50;;;;;;;4.25;3.42;;;17.30;99.90;;;;;;5093315;28;20471;-76
2022/06/29 03:11:16;;;;;;;6.30;4.05;;;17.30;99.90;;;;;;5093106;28;20026;-76
2022/06/29 03:13:41;;;;;;;6.80;3.78;;;17.30;99.90;;;;;;5092574;28;20039;-76
2022/06/29 03:16:07;;;;;;;4.25;3.92;;;17.30;99.90;;;;;;5083276;28;20021;-76
2022/06/29 03:18:33;;;;;;;4.65;4.30;;;17.30;99.90;;;;;;5084830;28;20024;-77
2022/06/29 03:20:58;;;;;;;3.90;3.60;;;17.30;99.90;;;;;;5071722;28;20029;-77
2022/06/29 03:23:24;;;;;;;3.97;3.53;;;17.30;99.90;;;;;;5072330;28;20043;-76
2022/06/29 03:25:50;;;;;;;4.45;4.05;;;17.30;99.90;;;;;;5072546;28;20021;-74
2022/06/29 03:28:15;;;;;;;4.25;3.85;;;17.30;99.90;;;;;;5073668;28;20396;-78
2022/06/29 03:30:41;;;;;;;5.03;4.55;;;17.30;99.90;;;;;;5072471;28;20457;-75
2022/06/29 03:33:07;;;;;;;4.85;4.45;;;17.30;99.90;;;;;;5072478;28;20471;-75
2022/06/29 03:35:33;;;;;;;4.45;4.05;;;17.20;99.90;;;;;;5071929;28;20020;-76
2022/06/29 03:37:59;;;;;;;5.57;4.10;;;17.30;99.90;;;;;;5072906;28;20033;-78
2022/06/29 03:40:24;;;;;;;5.43;4.07;;;17.20;99.90;;;;;;5073206;28;20396;-77
2022/06/29 03:42:51;;;;;;;5.15;4.50;;;17.20;99.90;;;;;;5080986;28;20020;-76
2022/06/29 03:45:16;;;;;;;5.28;4.80;;;17.20;99.90;;;;;;5090726;28;20088;-76
2022/06/29 03:47:42;;;;;;;5.25;4.68;;;17.20;99.90;;;;;;5088962;28;20479;-76
2022/06/29 03:50:09;;;;;;;6.97;4.88;;;17.20;99.90;;;;;;5082849;28;20050;-76
2022/06/29 03:52:35;;;;;;;7.15;4.38;;;17.20;99.90;;;;;;5089133;28;20076;-76
2022/06/29 03:55:01;;;;;;;5.38;4.97;;;17.10;99.90;;;;;;5084983;28;20020;-77
2022/06/29 03:57:27;;;;;;;6.80;5.28;;;17.10;99.90;;;;;;5082608;28;20487;-78
2022/06/29 03:59:52;;;;;;;6.40;4.78;;;17.10;99.90;;;;;;5076761;28;20036;-76
2022/06/29 04:02:18;;;;;;;4.75;4.40;;;17.10;99.90;;;;;;5069924;28;20028;-77
2022/06/29 04:04:43;;;;;;;7.35;5.15;;;17.10;99.90;;;;;;5085760;28;20127;-77
2022/06/29 04:07:09;;;;;;;7.93;4.47;;;17.20;99.90;;;;;;5084133;28;20460;-75
2022/06/29 04:09:35;;;;;;;4.93;4.45;;;17.10;99.90;;;;;;5071665;28;20044;-77
2022/06/29 04:12:01;;;;;;;13.68;4.88;;;17.10;99.90;;;;;;5071781;28;20032;-77
2022/06/29 04:14:28;;;;;;;5.38;4.47;;;17.20;99.90;;;;;;5072076;28;20036;-78
2022/06/29 04:16:56;;;;;;;5.15;4.75;;;17.10;99.90;;;;;;5071190;28;20016;-76
2022/06/29 04:19:22;;;;;;;5.75;4.65;;;17.10;99.90;;;;;;5070606;28;20106;-77
2022/06/29 04:21:48;;;;;;;6.50;4.63;;;17.20;99.90;;;;;;5094128;28;20036;-76
2022/06/29 04:24:15;;;;;;;8.23;5.32;;;17.20;99.90;;;;;;5081558;28;20409;-78
2022/06/29 04:26:40;;;;;;;6.22;5.25;;;17.20;99.90;;;;;;5085237;28;20028;-78
2022/06/29 04:29:06;;;;;;;5.75;4.35;;;17.20;99.90;;;;;;5091193;28;20016;-76
2022/06/29 04:31:33;;;;;;;5.95;5.45;;;17.20;99.90;;;;;;5071192;28;20036;-76
2022/06/29 04:33:59;;;;;;;5.60;5.10;;;17.20;99.90;;;;;;5081754;28;20031;-76
2022/06/29 04:36:25;;;;;;;7.00;5.53;;;17.30;99.90;;;;;;5082696;28;20017;-78
2022/06/29 04:38:51;;;;;;;5.50;5.00;;;17.30;99.90;;;;;;5091605;28;20033;-76
2022/06/29 04:41:16;;;;;;;4.88;4.50;;;17.30;99.90;;;;;;5089592;28;20059;-77
2022/06/29 04:43:42;;;;;;;5.57;5.18;;;17.40;99.90;;;;;;5084664;28;20025;-75
2022/06/29 04:46:20;;;;;;;7.68;4.93;;;17.40;99.90;;;;;;5072547;28;20111;-76
2022/06/29 04:48:50;;;;;;;5.47;4.93;;;17.40;99.90;;;;;;5071780;28;20028;-77
2022/06/29 04:51:16;;;;;;;7.90;5.30;;;17.50;99.90;;;;;;5076378;28;20016;-76
2022/06/29 04:53:46;;;;;;;7.07;6.38;;;17.60;99.90;;;;;;5090390;28;20028;-77
2022/06/29 04:56:12;;;;;;;6.93;6.30;;;17.60;99.90;;;;;;5086794;28;20055;-76
2022/06/29 04:58:38;;;;;;;5.47;4.97;;;17.50;99.90;;;;;;5083706;28;20024;-76
2022/06/29 05:01:05;;;;;;;6.38;5.80;;;17.60;99.90;;;;;;5079180;28;20032;-76
2022/06/29 05:03:31;;;;;;;6.45;5.95;;;17.60;99.90;;;;;;5071432;28;20044;-76
2022/06/29 05:05:56;;;;;;;7.72;6.22;;;17.60;99.90;;;;;;5070436;28;20036;-77
2022/06/29 05:08:22;;;;;;;5.38;4.97;;;17.70;99.90;;;;;;5071555;28;20009;-76
2022/06/29 05:10:48;;;;;;;6.57;5.85;;;17.70;99.90;;;;;;5071189;28;20107;-78
2022/06/29 05:13:13;;;;;;;13.50;7.65;;;17.80;99.90;;;;;;5070397;28;20064;-77
2022/06/29 05:15:40;;;;;;;9.07;6.88;;;17.80;99.90;;;;;;5071394;28;20024;-77
2022/06/29 05:18:06;;;;;;;6.15;5.45;;;17.80;99.90;;;;;;5071410;28;20025;-77
2022/06/29 05:20:32;;;;;;;8.80;6.10;;;17.80;99.90;;;;;;5070820;28;20097;-75
2022/06/29 05:22:57;;;;;;;11.43;6.35;;;17.90;99.90;;;;;;5071243;28;20025;-77
2022/06/29 05:25:23;;;;;;;6.93;6.25;;;18.00;99.90;;;;;;5082997;28;20471;-76
2022/06/29 05:27:49;;;;;;;11.93;6.90;;;18.00;99.90;;;;;;5088296;28;20024;-76
2022/06/29 05:30:15;;;;;;;8.68;7.15;;;18.10;99.90;;;;;;5089412;28;20023;-76
2022/06/29 05:32:41;;;;;;;6.90;6.15;;;18.10;99.90;;;;;;5093738;28;20032;-77
2022/06/29 05:35:07;;;;;;;7.05;6.40;;;18.20;99.90;;;;;;5092481;28;20024;-76
2022/06/29 05:37:33;;;;;;;8.15;6.47;;;18.20;99.90;;;;;;5091936;28;20020;-76
2022/06/29 05:39:59;;;;;;;9.20;6.68;;;18.20;99.90;;;;;;5088473;28;20028;-77
2022/06/29 05:42:24;;;;;;;7.38;6.78;;;18.30;99.90;;;;;;5089404;28;20033;-76
2022/06/29 05:44:51;;;;;;;7.25;6.55;;;18.30;99.90;;;;;;5093140;28;20027;-77
2022/06/29 05:47:16;;;;;;;7.57;6.50;;;18.40;99.90;;;;;;5093525;28;20488;-77
2022/06/29 05:49:42;;;;;;;6.63;6.10;;;18.40;99.90;;;;;;5089705;28;20055;-77
2022/06/29 05:52:08;;;;;;;8.45;7.55;;;18.40;99.90;;;;;;5093091;28;20498;-77
2022/06/29 05:54:34;;;;;;;7.57;6.40;;;18.50;99.90;;;;;;5078273;28;20456;-75
2022/06/29 05:57:00;;;;;;;7.43;6.78;;;18.50;99.90;;;;;;5074189;28;20024;-76
2022/06/29 05:59:26;;;;;;;7.40;6.57;;;18.60;99.90;;;;;;5079927;28;20385;-77
2022/06/29 06:01:52;;;;;;;12.85;7.30;;;18.60;99.90;;;;;;5076571;28;20021;-76
2022/06/29 06:04:17;;;;;;;8.48;6.97;;;18.70;99.90;;;;;;5074462;28;20095;-76
2022/06/29 06:06:43;;;;;;;7.65;7.07;;;18.70;99.90;;;;;;5074616;28;20092;-76
2022/06/29 06:09:08;;;;;;;8.18;7.25;;;18.70;99.90;;;;;;5073831;28;20028;-76
2022/06/29 06:11:37;;;;;;;7.85;7.15;;;18.80;99.90;;;;;;5074404;28;20023;-77
2022/06/29 06:14:03;;;;;;;9.95;8.95;;;18.90;99.90;;;;;;5074127;28;20465;-76
2022/06/29 06:16:28;;;;;;;7.63;6.93;;;18.90;99.90;;;;;;5073838;28;20023;-74
2022/06/29 06:18:54;;;;;;;14.55;8.18;;;18.90;99.90;;;;;;5074275;28;20031;-76
2022/06/29 06:21:22;;;;;;;8.40;6.88;;;19.00;99.90;;;;;;5075464;28;20089;-77
2022/06/29 06:23:50;;;;;;;9.55;8.65;;;19.10;99.90;;;;;;5084091;28;20019;-75
2022/06/29 06:26:16;;;;;;;9.60;7.47;;;19.20;99.90;;;;;;5073196;28;20172;-75
2022/06/29 06:28:41;;;;;;;10.80;8.65;;;19.20;99.90;;;;;;5074085;28;21309;-76
2022/06/29 06:31:10;;;;;;;17.77;8.27;;;19.30;99.90;;;;;;5072952;28;20037;-76
2022/06/29 06:33:35;;;;;;;7.80;7.07;;;19.30;99.90;;;;;;5074312;28;20028;-75
2022/06/29 06:36:01;;;;;;;9.27;7.53;;;19.40;99.90;;;;;;5085437;28;20023;-76
2022/06/29 06:38:27;;;;;;;10.75;7.93;;;19.50;99.90;;;;;;5072833;28;20032;-76
2022/06/29 06:43:42;;;;;;;8.20;7.40;;;19.60;99.90;;;;;;5080445;28;20116;-75
2022/06/29 06:46:08;;;;;;;7.22;6.70;;;19.80;99.90;;;;;;5074044;28;20116;-77
2022/06/29 06:48:33;;;;;;;7.55;6.72;;;19.80;99.90;;;;;;5079929;28;20021;-77
2022/06/29 06:50:59;;;;;;;6.85;6.30;;;19.90;99.90;;;;;;5073574;28;20025;-77
2022/06/29 06:53:26;;;;;;;11.77;7.18;;;19.90;99.90;;;;;;5093267;28;20483;-77
2022/06/29 06:55:52;;;;;;;12.00;6.68;;;20.10;99.90;;;;;;5093635;28;20430;-77
2022/06/29 06:58:17;;;;;;;7.68;6.43;;;20.20;99.90;;;;;;5092283;28;20031;-77
2022/06/29 07:00:43;;;;;;;7.25;6.55;;;20.20;99.90;;;;;;5094196;28;20023;-78
2022/06/29 07:03:09;;;;;;;6.60;5.93;;;20.30;99.90;;;;;;5093050;28;20047;-76
2022/06/29 07:05:35;;;;;;;7.40;5.72;;;20.40;99.90;;;;;;5093117;28;20024;-75
2022/06/29 07:08:00;;;;;;;12.85;6.60;;;20.40;99.90;;;;;;5093264;28;20032;-76
2022/06/29 07:10:26;;;;;;;9.10;6.55;;;20.50;99.90;;;;;;5093674;28;20020;-76
2022/06/29 07:12:51;;;;;;;9.85;5.00;;;20.50;99.90;;;;;;5092028;28;20465;-76
2022/06/29 07:15:17;;;;;;;6.80;5.35;;;20.60;99.90;;;;;;5093232;28;20460;-75
2022/06/29 07:17:43;;;;;;;9.98;6.15;;;20.70;99.90;;;;;;5093320;28;20464;-76
2022/06/29 07:20:09;;;;;;;10.27;5.70;;;20.90;99.90;;;;;;5093346;28;20069;-76
2022/06/29 07:22:35;;;;;;;6.75;5.22;;;20.90;99.90;;;;;;5092656;28;20035;-76
2022/06/29 07:25:00;;;;;;;6.38;5.78;;;21.00;99.90;;;;;;5093115;28;20017;-76
2022/06/29 07:27:26;;;;;;;7.03;5.65;;;21.00;99.90;;;;;;5092492;28;20111;-77
2022/06/29 07:29:52;;;;;;;9.73;5.53;;;21.10;99.90;;;;;;5092381;28;20069;-76
2022/06/29 07:32:19;;;;;;;4.97;4.38;;;21.20;99.90;;;;;;5092643;28;20047;-76
2022/06/29 07:34:45;;;;;;;5.32;4.82;;;21.20;99.90;;;;;;5092093;28;20020;-77
2022/06/29 07:37:10;;;;;;;12.88;5.05;;;21.20;99.90;;;;;;5092621;28;20091;-76
2022/06/29 07:39:36;;;;;;;5.03;4.57;;;21.30;99.90;;;;;;5092692;28;20090;-77
2022/06/29 07:42:02;;;;;;;6.82;4.22;;;21.40;99.90;;;;;;5091650;28;20559;-75
2022/06/29 07:44:28;;;;;;;5.78;3.70;;;21.50;99.90;;;;;;5093068;28;20472;-76
2022/06/29 07:46:54;;;;;;;6.20;3.90;;;21.60;99.90;;;;;;5092836;28;20028;-74
2022/06/29 07:49:20;;;;;;;5.72;4.22;;;21.60;99.90;;;;;;5090153;28;20480;-76
2022/06/29 07:51:45;;;;;;;4.57;3.78;;;21.70;99.90;;;;;;5079422;28;20023;-77
2022/06/29 07:54:11;;;;;;;13.07;5.25;;;21.70;99.90;;;;;;5092899;28;20036;-77
2022/06/29 07:56:36;;;;;;;6.93;4.88;;;21.80;99.90;;;;;;5092061;28;20028;-76
2022/06/29 07:59:03;;;;;;;9.40;4.55;;;21.80;99.90;;;;;;5092614;28;20077;-75
2022/06/29 08:01:28;;;;;;;9.98;4.05;;;21.90;99.90;;;;;;5091504;28;20020;-76
2022/06/29 08:03:55;;;;;;;4.47;3.90;;;21.90;99.90;;;;;;5085506;28;20037;-76
2022/06/29 08:06:21;;;;;;;4.93;3.95;;;22.00;99.90;;;;;;5075722;28;20107;-76
2022/06/29 08:08:47;;;;;;;5.70;4.22;;;22.10;99.90;;;;;;5088195;28;20395;-76
2022/06/29 08:11:13;;;;;;;8.25;4.90;;;22.20;99.90;;;;;;5091101;28;20123;-75
2022/06/29 08:13:38;;;;;;;5.35;3.28;;;22.30;99.90;;;;;;5072121;28;20127;-76
2022/06/29 08:16:08;;;;;;;5.03;2.75;;;22.40;99.90;;;;;;5071037;28;20043;-76
2022/06/29 08:18:34;;;;;;;5.30;3.30;;;22.50;99.90;;;;;;5071933;28;20032;-76
2022/06/29 08:21:03;;;;;;;7.43;3.65;;;22.50;99.90;;;;;;5071288;28;20122;-77
2022/06/29 08:23:30;;;;;;;4.13;3.33;;;22.60;99.90;;;;;;5070491;28;20437;-75
2022/06/29 08:25:57;;;;;;;3.72;3.42;;;22.60;99.90;;;;;;5071713;28;20392;-75
2022/06/29 08:28:25;;;;;;;4.72;4.10;;;22.60;99.90;;;;;;5072592;28;20021;-75
2022/06/29 08:30:57;;;;;;;4.97;4.57;;;22.60;99.90;;;;;;5070784;28;20440;-75
2022/06/29 08:33:22;;;;;;;4.20;3.90;;;22.60;99.90;;;;;;5070756;28;20463;-76
2022/06/29 08:35:49;;;;;;;6.45;4.50;;;22.70;99.90;;;;;;5071243;28;20096;-75
2022/06/29 08:38:15;;;;;;;6.32;4.57;;;22.90;99.90;;;;;;5071209;28;20112;-76
2022/06/29 08:40:46;;;;;;;6.07;5.05;;;22.80;99.90;;;;;;5071571;28;20017;-75
2022/06/29 08:43:14;;;;;;;5.25;4.75;;;22.90;99.90;;;;;;5070476;28;20036;-75
2022/06/29 08:45:43;;;;;;;4.10;3.70;;;23.00;99.90;;;;;;5070869;28;20024;-76
2022/06/29 08:48:10;;;;;;;4.60;3.80;;;23.00;99.90;;;;;;5071019;28;20032;-75
2022/06/29 08:50:42;;;;;;;4.22;2.78;;;23.10;99.90;;;;;;5070878;28;20033;-75
2022/06/29 08:53:12;;;;;;;5.75;3.25;;;23.10;99.90;;;;;;5089415;28;20044;-75
2022/06/29 08:55:42;;;;;;;3.83;2.90;;;23.20;99.80;;;;;;5090895;28;20040;-76
2022/06/29 08:58:09;;;;;;;6.93;3.58;;;23.30;99.90;;;;;;5070249;28;20085;-77
2022/06/29 09:00:38;;;;;;;3.67;3.17;;;23.40;99.60;;;;;;5071202;28;20472;-76
2022/06/29 09:03:04;;;;;;;8.10;3.30;;;23.50;99.70;;;;;;5070651;28;20059;-76
2022/06/29 09:05:31;;;;;;;8.18;3.33;;;23.50;99.50;;;;;;5072147;28;20024;-76
2022/06/29 09:07:57;;;;;;;3.83;2.80;;;23.60;99.10;;;;;;5075024;28;20033;-76
2022/06/29 09:10:24;;;;;;;3.10;2.90;;;23.60;99.50;;;;;;5075828;28;20075;-77
2022/06/29 09:12:52;;;;;;;5.60;3.58;;;23.70;99.60;;;;;;5074211;28;20047;-76
2022/06/29 09:15:33;;;;;;;3.35;3.03;;;23.70;99.10;;;;;;5074597;28;20473;-75
2022/06/29 09:18:00;;;;;;;5.88;3.50;;;23.80;98.30;;;;;;5074792;28;20074;-75
2022/06/29 09:20:37;;;;;;;3.15;2.72;;;23.90;97.50;;;;;;5080578;28;20028;-76
2022/06/29 09:23:03;;;;;;;6.85;3.58;;;23.90;96.80;;;;;;5077649;28;20415;-75
2022/06/29 09:25:31;;;;;;;5.55;4.55;;;24.00;96.80;;;;;;5074181;28;20016;-76
2022/06/29 09:27:57;;;;;;;9.60;6.30;;;24.10;96.30;;;;;;5074054;28;20464;-76
2022/06/29 09:30:35;;;;;;;5.40;3.53;;;24.10;96.30;;;;;;5074488;28;20040;-75
2022/06/29 09:33:05;;;;;;;8.88;2.70;;;24.20;95.80;;;;;;5073671;28;20037;-77
2022/06/29 09:35:31;;;;;;;5.30;3.10;;;24.30;95.40;;;;;;5074265;28;20464;-77
2022/06/29 09:38:23;;;;;;;4.22;2.22;;;24.30;96.30;;;;;;5074443;28;20119;-76
2022/06/29 09:41:14;;;;;;;2.33;2.13;;;24.50;95.70;;;;;;5073826;28;20028;-76
2022/06/29 09:43:47;;;;;;;2.95;2.08;;;24.60;95.90;;;;;;5074811;28;20486;-77
2022/06/29 09:46:15;;;;;;;3.83;2.10;;;24.70;95.70;;;;;;5074239;28;20032;-77
2022/06/29 09:48:42;;;;;;;4.40;1.83;;;24.70;95.00;;;;;;5074129;28;20047;-76
2022/06/29 09:54:05;;;;;;;2.47;2.00;;;24.90;94.20;;;;;;5094315;28;20510;-76
2022/06/29 09:56:31;;;;;;;3.53;1.88;;;25.00;94.10;;;;;;5087845;28;20028;-77
2022/06/29 09:59:02;;;;;;;3.17;1.80;;;25.10;93.90;;;;;;5073301;28;20032;-75
2022/06/29 10:04:13;;;;;;;1.80;1.63;;;25.20;93.40;;;;;;5074037;28;20147;-77
2022/06/29 10:06:39;;;;;;;4.03;2.35;;;25.20;93.30;;;;;;5073637;28;20531;-74
2022/06/29 10:09:06;;;;;;;6.03;1.70;;;25.30;94.00;;;;;;5073300;28;20032;-76
2022/06/29 10:14:43;;;;;;;2.13;1.58;;;25.50;93.20;;;;;;5074585;28;20077;-77
2022/06/29 10:17:23;;;;;;;2.22;1.67;;;25.60;91.90;;;;;;5071820;28;20040;-76
2022/06/29 10:20:00;;;;;;;4.85;1.30;;;25.70;91.80;;;;;;5082278;28;20021;-77
2022/06/29 10:22:30;;;;;;;2.60;2.08;;;25.90;91.80;;;;;;5075568;28;20417;-76
2022/06/29 10:25:04;;;;;;;1.83;1.30;;;25.90;92.10;;;;;;5073893;28;20040;-76
2022/06/29 10:27:32;;;;;;;2.40;1.63;;;26.00;91.70;;;;;;5085170;28;20496;-75
2022/06/29 10:30:22;;;;;;;2.85;1.65;;;25.90;91.50;;;;;;5072638;28;20036;-77
2022/06/29 10:32:49;;;;;;;2.67;1.45;;;26.10;91.70;;;;;;5061333;28;20091;-76
2022/06/29 10:35:14;;;;;;;2.35;1.27;;;26.20;91.60;;;;;;5073597;28;20114;-76
2022/06/29 10:37:54;;;;;;;1.40;1.20;;;26.20;91.40;;;;;;5078259;28;20059;-75
2022/06/29 10:40:24;;;;;;;1.63;1.50;;;26.20;90.60;;;;;;5072938;28;20016;-75
2022/06/29 10:43:10;;;;;;;2.05;1.50;;;26.20;90.60;;;;;;5072775;28;20028;-76
2022/06/29 10:45:38;;;;;;;2.83;1.48;;;26.30;91.40;;;;;;5073088;28;20583;-76
2022/06/29 10:48:07;;;;;;;2.15;1.38;;;26.20;90.80;;;;;;5072961;28;20078;-75
2022/06/29 10:50:38;;;;;;;2.70;1.67;;;26.20;90.50;;;;;;5072094;28;20066;-76
2022/06/29 10:53:14;;;;;;;2.60;1.65;;;26.10;90.50;;;;;;5091127;28;20028;-75
2022/06/29 10:55:42;;;;;;;2.90;1.58;;;26.10;90.80;;;;;;5093854;28;20047;-76
2022/06/29 10:58:09;;;;;;;1.88;1.20;;;26.20;90.90;;;;;;5092141;28;20086;-75
2022/06/29 11:00:40;;;;;;;2.08;1.50;;;26.20;90.70;;;;;;5093446;28;20024;-75
2022/06/29 11:03:26;;;;;;;3.08;1.60;;;26.30;90.50;;;;;;5092819;28;20051;-75
2022/06/29 11:16:58;;;;;;;5.18;1.20;;;27.60;88.10;;;;;;5078876;28;20046;-76
2022/06/29 11:19:33;;;;;;;1.37;1.10;;;27.80;82.90;;;;;;5076037;28;20499;-76
2022/06/29 11:22:15;;;;;;;4.47;1.38;;;28.00;83.50;;;;;;5073658;28;20136;-76
2022/06/29 11:24:54;;;;;;;4.22;1.35;;;28.10;84.30;;;;;;5080333;28;20174;-73
2022/06/29 11:27:37;;;;;;;4.28;1.70;;;28.20;84.80;;;;;;5078446;28;20101;-76
2022/06/29 11:30:18;;;;;;;2.58;1.40;;;28.30;84.00;;;;;;5084222;28;20075;-76
2022/06/29 11:32:45;;;;;;;2.28;1.40;;;28.20;83.90;;;;;;5089750;28;20102;-76
2022/06/29 11:35:14;;;;;;;2.90;1.60;;;28.00;83.20;;;;;;5088127;28;20550;-75
2022/06/29 11:38:02;;;;;;;2.40;1.25;;;28.00;83.80;;;;;;5092269;28;20024;-78
2022/06/29 11:40:34;;;;;;;2.10;1.65;;;28.10;84.30;;;;;;5092058;28;20016;-77
2022/06/29 11:43:04;;;;;;;1.40;1.30;;;28.30;83.40;;;;;;5086508;28;20052;-76
2022/06/29 11:45:44;;;;;;;4.13;2.10;;;28.30;83.20;;;;;;5072514;28;20092;-75
2022/06/29 11:48:12;;;;;;;;;;;28.40;82.40;;;;;;5082831;28;20108;-76
2022/06/29 11:50:45;;;;;;;3.85;1.70;;;28.40;82.00;;;;;;5073653;28;19904;-75
2022/06/29 11:53:10;;;;;;;1.60;1.50;;;28.40;83.20;;;;;;5090608;28;20107;-77
2022/06/29 11:55:40;;;;;;;2.00;1.48;;;28.40;82.40;;;;;;5091711;28;20556;-75
2022/06/29 11:58:09;;;;;;;3.90;1.38;;;28.40;82.70;;;;;;5072933;28;20025;-76
2022/06/29 12:00:39;;;;;;;2.13;1.67;;;28.30;82.60;;;;;;5070807;28;20020;-75
2022/06/29 12:03:05;;;;;;;1.63;1.50;;;28.30;81.60;;;;;;5069723;28;20054;-75
2022/06/29 12:05:31;;;;;;;2.03;1.40;;;28.20;82.10;;;;;;5074652;28;20476;-76
2022/06/29 12:07:56;;;;;;;10.73;1.63;;;28.30;81.60;;;;;;5071048;28;20088;-76
2022/06/29 12:10:22;;;;;;;1.38;1.20;;;28.30;82.50;;;;;;5072125;28;20122;-75
2022/06/29 12:12:48;;;;;;;1.83;1.55;;;28.40;83.30;;;;;;5070696;28;20032;-76
2022/06/29 12:15:14;;;;;;;4.00;1.50;;;28.40;81.50;;;;;;5070829;28;20012;-74
2022/06/29 12:17:40;;;;;;;3.65;1.30;;;28.40;81.60;;;;;;5071945;28;20064;-76
2022/06/29 12:20:06;;;;;;;2.13;1.48;;;28.30;82.70;;;;;;5071241;28;20058;-76
2022/06/29 12:22:34;;;;;;;2.28;1.27;;;28.20;82.60;;;;;;5073309;28;20025;-75
2022/06/29 12:24:59;;;;;;;6.35;1.60;;;28.20;82.90;;;;;;5071161;28;20028;-76
2022/06/29 12:27:25;;;;;;;1.58;1.48;;;28.20;82.30;;;;;;5091168;28;20035;-75
2022/06/29 12:29:51;;;;;;;3.00;1.45;;;28.20;80.60;;;;;;5077574;28;20027;-75
2022/06/29 12:32:16;;;;;;;1.77;1.25;;;28.30;81.20;;;;;;5070903;28;20033;-76
2022/06/29 12:34:42;;;;;;;1.55;1.13;;;28.50;80.80;;;;;;5071196;28;20095;-76
2022/06/29 12:37:08;;;;;;;1.63;1.20;;;28.80;80.50;;;;;;5070628;28;20033;-77
2022/06/29 12:39:34;;;;;;;1.45;1.35;;;28.90;79.60;;;;;;5071014;28;20017;-77
2022/06/29 12:42:01;;;;;;;2.42;1.23;;;29.10;80.00;;;;;;5071015;28;20032;-75
2022/06/29 12:44:27;;;;;;;2.10;1.30;;;29.20;79.80;;;;;;5070342;28;20055;-78
2022/06/29 12:46:53;;;;;;;2.03;1.17;;;29.30;78.20;;;;;;5071466;28;20432;-74
2022/06/29 12:49:18;;;;;;;4.38;1.20;;;29.40;79.40;;;;;;5071315;28;20020;-75
2022/06/29 12:51:45;;;;;;;2.67;1.30;;;29.50;78.50;;;;;;5078481;28;20056;-75
2022/06/29 12:54:10;;;;;;;1.70;1.60;;;29.50;76.50;;;;;;5091754;28;20036;-75
2022/06/29 12:56:36;;;;;;;1.48;1.10;;;29.50;76.80;;;;;;5091813;28;20038;-76
2022/06/29 12:59:02;;;;;;;1.75;1.20;;;29.60;76.60;;;;;;5091301;28;20035;-76
2022/06/29 13:01:29;;;;;;;2.85;1.60;;;29.80;77.50;;;;;;5091932;28;20023;-76
2022/06/29 13:03:54;;;;;;;3.53;1.40;;;29.90;75.90;;;;;;5090923;28;20047;-75
2022/06/29 13:06:20;;;;;;;3.35;1.15;;;30.00;76.20;;;;;;5089951;28;20032;-74
2022/06/29 13:08:45;;;;;;;4.25;1.50;;;30.00;76.60;;;;;;5078080;28;20021;-76
2022/06/29 13:11:11;;;;;;;2.90;1.50;;;30.00;74.30;;;;;;5075962;28;20016;-76
2022/06/29 13:13:39;;;;;;;2.47;1.00;;;30.00;74.50;;;;;;5087409;28;20043;-75